Atwater, Ohio
Current Conditions -  °F | °C
As of 4:00 PM on Thursday 27 Nov 2014 (Local Time) from KPOV Reporting Station
Overcast Overcast  
Wind Chill: 19°   Ceiling: 3500
Heat Index: 30°   Visibility: 10mi
Dew Point: 20°   Wind: 15mph
Humidity: 66%   Direction: 280°W
Pressure: 30.13"   Gusts: 18mph
Location:  41.02°N, 81.16°W
Report Text: KPOV 272100Z AUTO 28013G16KT 10SM SCT026 OVC035 M01/M07 A3013 RMK AO2 T10101067
Loading
Personal Weather Stations






























Interactive Weather Map New forecast layout! Learn more

10-Day Weather Forecast

Advertisements
Track Severe Weather on mobile